Terminal Aerodrome Forecast
Issued by NWS

Home | Current Version | Previous Version | Text Only | Print | Product List | Glossary On
Versions: 1 2 3 4 5 6 7 8 9 10 11 12 13 14 15 16 17
000
FTUS46 KOTX 210539
TAFMWH
TAF
KMWH 210539Z 2106/2206 16006KT P6SM BKN200
     FM210800 15007KT P6SM SCT070 BKN150
     FM211800 14010KT P6SM -RA BKN030 OVC060
     FM212100 15010KT 6SM -RA BR BKN019 OVC030
     FM220000 18010KT P6SM BKN025=

USA.gov is the U.S. government's official web portal to all federal, state and local government web resources and services.